• Join FlightAware (Why Join?)
  • Login
  • US Flag 
08:07PM EDT


 

Airport Tracker/Info


-or-


 

Live Flight TrackerFlight Track Log ✈ GJS6221 ✈ 17-Aug-2013 ✈ CYUL - KLGA

Flight Track Log - Related Links

Times and Time Zones

All times are in EDT time to prevent confusion due to time zone crossing. See the GJS6221 flight status page for this flight to view local times or setup timezone preferences in your user account.

Time Position Orientation Groundspeed Altitude Reporting Facility
EDT Latitude Longitude Course Direction KTS MPH feet Rate Location/Type
07:17AM 45.4667 -73.7167 207° Southwest 320 368 400  Level Montreal Center
07:18AM 45.5000 -73.6667 46° Northeast 180 207 2,300 2,100 Climbing Montreal Center
07:19AM 45.5167 -73.6000 70° East 220 253 4,600 2,280 Climbing Montreal Center
07:20AM 45.4667 -73.5500 145° Southeast 280 322 6,900 2,520 Climbing Montreal Center
07:21AM 45.4000 -73.6000 208° Southwest 290 334 9,700 2,400 Climbing Montreal Center
07:22AM 45.3167 -73.6500 203° Southwest 320 368 11,800 1,980 Climbing Montreal Center
07:23AM 44.9845 -74.0825 207° Southwest  Level FlightAware Approximate
07:23AM 45.2333 -73.7333 215° Southwest 350 403 13,700  Level Montreal Center
07:24AM 45.1333 -73.8000 205° Southwest 370 426 15,800 2,040 Climbing Montreal Center
07:25AM 45.0500 -73.8833 215° Southwest 380 437 17,800 1,800 Climbing Montreal Center
07:26AM 44.9500 -73.9333 199° South 380 437 19,500 1,800 Climbing Montreal Center
07:27AM 44.8500 -74.0000 205° Southwest 380 437 21,500 1,860 Climbing Montreal Center
07:28AM 44.8228 -74.0642 239° Southwest 384 442 22,400 1,500 Climbing Boston Center
07:29AM 44.7239 -74.1317 206° Southwest 392 451 23,900 1,500 Climbing Boston Center
07:30AM 44.6117 -74.1197 176° South 397 457 25,400 1,380 Climbing Boston Center
07:31AM 44.4953 -74.1019 174° South 410 472 26,700 1,080 Climbing Boston Center
07:32AM 44.3850 -74.0872 175° South 425 489 27,600 960 Climbing Boston Center
07:33AM 44.2417 -74.0628 173° South 438 504 28,800 960 Climbing Boston Center
07:34AM 44.1211 -74.0422 173° South 443 510 29,700 540 Climbing Boston Center
07:35AM 43.9961 -74.0217 173° South 450 518 30,000 120 Climbing Boston Center
07:36AM 43.8819 -73.9983 172° South 456 525 30,000  Level Boston Center
07:37AM 43.7342 -73.9772 174° South 456 525 30,000  Level Boston Center
07:38AM 43.6075 -73.9542 172° South 456 525 30,000 -60 Level Boston Center
07:39AM 43.4828 -73.9336 173° South 461 531 29,900 -840 Descending Boston Center
07:40AM 43.3558 -73.9136 173° South 461 531 28,400 -1,620 Descending Boston Center
07:41AM 43.2331 -73.8906 172° South 461 531 26,800 -1,560 Descending Boston Center
07:42AM 43.1125 -73.8678 172° South 456 525 25,300 -1,500 Descending Boston Center
07:43AM 42.9939 -73.8481 173° South 446 513 23,800 -1,500 Descending Boston Center
07:44AM 42.8775 -73.8283 173° South 435 501 22,300 -900 Descending Boston Center
07:45AM 42.7631 -73.8089 173° South 429 494 22,000 -240 Descending Boston Center
07:46AM 42.6489 -73.7867 172° South 422 486 21,900 -480 Descending Boston Center
07:47AM 42.5489 -73.7703 173° South 422 486 21,100 -900 Descending Boston Center
07:48AM 42.4389 -73.7456 171° South 416 479 20,100 -1,140 Descending Boston Center
07:49AM 42.3142 -73.7119 169° South 410 472 18,900 -1,020 Descending Boston Center
07:50AM 42.2142 -73.6986 174° South 410 472 18,100 -480 Descending Boston Center
07:51AM 42.1081 -73.6769 171° South 404 465 18,000 -120 Descending Boston Center
07:52AM 41.9897 -73.6467 169° South 404 465 17,900 -420 Descending Boston Center
07:53AM 41.8939 -73.6281 172° South 404 465 17,200 -1,020 Descending Boston Center
07:54AM 41.7756 -73.6036 171° South 394 453 15,900 -1,380 Descending Boston Center
07:55AM 41.6858 -73.6131 184° South 380 437 14,500 -1,500 Descending Boston Center
07:56AM 41.5872 -73.6669 202° Southwest 355 409 12,900 -1,620 Descending Boston Center
07:57AM 41.5167 -73.7000 199° South 301 346 11,400 -1,680 Descending New York TRACON
07:58AM 41.4500 -73.7500 209° Southwest 285 328 9,900 -1,200 Descending New York TRACON
07:59AM 41.3667 -73.7833 197° South 278 320 9,000 -900 Descending New York TRACON
08:00AM 41.3000 -73.7667 169° South 290 334 8,200 -1,260 Descending New York TRACON
08:01AM 41.2333 -73.7000 143° Southeast 282 325 6,700 -1,500 Descending New York TRACON
08:02AM 41.1500 -73.7000 180° South 266 306 5,200 -1,440 Descending New York TRACON
08:03AM 41.1000 -73.6833 166° South 270 311 4,000 -660 Descending New York TRACON
08:04AM 41.0167 -73.6667 171° South 271 312 4,000  Level New York TRACON
08:05AM 40.9500 -73.6500 169° South 272 313 4,000 -360 Level New York TRACON
08:06AM 40.8833 -73.6500 180° South 260 299 3,400 -840 Descending New York TRACON
08:07AM 40.8167 -73.7000 210° Southwest 232 267 2,400 -780 Descending New York TRACON
08:08AM 40.7833 -73.7333 217° Southwest 209 241 2,000 -540 Descending New York TRACON
08:09AM 40.7500 -73.7833 229° Southwest 173 199 1,400 -660 Descending New York TRACON
08:10AM 40.7500 -73.8333 270° West 134 154 700 -720 Descending New York TRACON
08:12AM 40.7667 -73.8667 180° South  Level FlightAware Approximate
08:19AM 40.7772 -73.8726 180° South  Level Estimated
08:20AM 40.7772 -73.8726 180° South  Level Estimated